sensor_id;sensor_type;location;lat;lon;timestamp;P1;durP1;ratioP1;P2;durP2;ratioP2
72439;SDS011;60446;50.752;4.352;2023-02-14T00:01:18;31.65;;;11.93;;
72439;SDS011;60446;50.752;4.352;2023-02-14T00:03:46;35.00;;;12.45;;
72439;SDS011;60446;50.752;4.352;2023-02-14T00:06:14;28.75;;;11.23;;
72439;SDS011;60446;50.752;4.352;2023-02-14T00:08:42;25.20;;;11.48;;
72439;SDS011;60446;50.752;4.352;2023-02-14T00:11:11;27.95;;;12.68;;
72439;SDS011;60446;50.752;4.352;2023-02-14T00:13:39;24.80;;;10.00;;
72439;SDS011;60446;50.752;4.352;2023-02-14T00:16:26;28.67;;;11.15;;
72439;SDS011;60446;50.752;4.352;2023-02-14T00:18:53;25.33;;;10.35;;
72439;SDS011;60446;50.752;4.352;2023-02-14T00:21:30;27.15;;;11.13;;
72439;SDS011;60446;50.752;4.352;2023-02-14T00:24:11;24.70;;;9.73;;
72439;SDS011;60446;50.752;4.352;2023-02-14T00:26:40;28.23;;;10.20;;
72439;SDS011;60446;50.752;4.352;2023-02-14T00:29:09;25.52;;;11.40;;
72439;SDS011;60446;50.752;4.352;2023-02-14T00:31:41;30.90;;;10.77;;
72439;SDS011;60446;50.752;4.352;2023-02-14T00:34:09;26.33;;;11.27;;
72439;SDS011;60446;50.752;4.352;2023-02-14T00:36:37;27.42;;;11.65;;
72439;SDS011;60446;50.752;4.352;2023-02-14T00:39:05;30.90;;;10.75;;
72439;SDS011;60446;50.752;4.352;2023-02-14T00:41:35;27.98;;;10.27;;
72439;SDS011;60446;50.752;4.352;2023-02-14T00:44:03;28.70;;;11.65;;
72439;SDS011;60446;50.752;4.352;2023-02-14T00:46:32;31.27;;;12.20;;
72439;SDS011;60446;50.752;4.352;2023-02-14T00:49:00;25.75;;;10.75;;
72439;SDS011;60446;50.752;4.352;2023-02-14T00:51:27;26.38;;;10.52;;
72439;SDS011;60446;50.752;4.352;2023-02-14T00:53:55;30.05;;;12.25;;
72439;SDS011;60446;50.752;4.352;2023-02-14T00:56:22;20.10;;;8.98;;
72439;SDS011;60446;50.752;4.352;2023-02-14T00:58:49;25.48;;;10.40;;
72439;SDS011;60446;50.752;4.352;2023-02-14T01:01:16;27.27;;;10.32;;
72439;SDS011;60446;50.752;4.352;2023-02-14T01:03:45;33.50;;;11.23;;
72439;SDS011;60446;50.752;4.352;2023-02-14T01:06:12;25.65;;;10.23;;
72439;SDS011;60446;50.752;4.352;2023-02-14T01:08:40;26.85;;;10.48;;
72439;SDS011;60446;50.752;4.352;2023-02-14T01:11:25;23.65;;;9.10;;
72439;SDS011;60446;50.752;4.352;2023-02-14T01:13:55;27.27;;;10.45;;
72439;SDS011;60446;50.752;4.352;2023-02-14T01:16:24;25.38;;;11.02;;
72439;SDS011;60446;50.752;4.352;2023-02-14T01:18:53;29.90;;;10.52;;
72439;SDS011;60446;50.752;4.352;2023-02-14T01:21:22;26.80;;;10.27;;
72439;SDS011;60446;50.752;4.352;2023-02-14T01:23:55;24.83;;;9.98;;
72439;SDS011;60446;50.752;4.352;2023-02-14T01:26:25;27.77;;;10.40;;
72439;SDS011;60446;50.752;4.352;2023-02-14T01:28:54;26.65;;;10.20;;
72439;SDS011;60446;50.752;4.352;2023-02-14T01:31:25;23.40;;;10.63;;
72439;SDS011;60446;50.752;4.352;2023-02-14T01:33:55;25.33;;;9.98;;
72439;SDS011;60446;50.752;4.352;2023-02-14T01:36:24;26.15;;;9.98;;
72439;SDS011;60446;50.752;4.352;2023-02-14T01:38:59;27.13;;;9.65;;
72439;SDS011;60446;50.752;4.352;2023-02-14T01:41:30;22.83;;;8.50;;
72439;SDS011;60446;50.752;4.352;2023-02-14T01:44:00;22.98;;;10.07;;
72439;SDS011;60446;50.752;4.352;2023-02-14T01:46:30;26.33;;;10.00;;
72439;SDS011;60446;50.752;4.352;2023-02-14T01:49:02;26.35;;;9.38;;
72439;SDS011;60446;50.752;4.352;2023-02-14T01:51:47;22.73;;;8.20;;
72439;SDS011;60446;50.752;4.352;2023-02-14T01:54:18;27.65;;;9.82;;
72439;SDS011;60446;50.752;4.352;2023-02-14T01:56:50;28.70;;;9.82;;
72439;SDS011;60446;50.752;4.352;2023-02-14T01:59:24;27.52;;;9.25;;
72439;SDS011;60446;50.752;4.352;2023-02-14T02:01:57;21.77;;;8.70;;
72439;SDS011;60446;50.752;4.352;2023-02-14T02:04:27;26.05;;;9.88;;
72439;SDS011;60446;50.752;4.352;2023-02-14T02:07:02;29.02;;;8.68;;
72439;SDS011;60446;50.752;4.352;2023-02-14T02:09:33;23.80;;;9.52;;
72439;SDS011;60446;50.752;4.352;2023-02-14T02:12:08;23.40;;;9.60;;
72439;SDS011;60446;50.752;4.352;2023-02-14T02:14:36;25.88;;;10.23;;
72439;SDS011;60446;50.752;4.352;2023-02-14T02:17:19;28.23;;;9.63;;
72439;SDS011;60446;50.752;4.352;2023-02-14T02:23:36;24.48;;;8.82;;
72439;SDS011;60446;50.752;4.352;2023-02-14T02:38:12;22.90;;;8.85;;
72439;SDS011;60446;50.752;4.352;2023-02-14T02:41:17;29.67;;;9.63;;
72439;SDS011;60446;50.752;4.352;2023-02-14T02:47:00;27.02;;;9.68;;
72439;SDS011;60446;50.752;4.352;2023-02-14T02:50:32;22.52;;;8.57;;
72439;SDS011;60446;50.752;4.352;2023-02-14T02:58:56;28.98;;;9.35;;
72439;SDS011;60446;50.752;4.352;2023-02-14T03:01:32;25.58;;;10.10;;
72439;SDS011;60446;50.752;4.352;2023-02-14T03:04:07;25.23;;;10.60;;
72439;SDS011;60446;50.752;4.352;2023-02-14T03:06:56;29.73;;;9.93;;
72439;SDS011;60446;50.752;4.352;2023-02-14T03:14:49;20.17;;;8.77;;
72439;SDS011;60446;50.752;4.352;2023-02-14T03:17:37;22.33;;;9.73;;
72439;SDS011;60446;50.752;4.352;2023-02-14T03:20:42;20.70;;;9.52;;
72439;SDS011;60446;50.752;4.352;2023-02-14T03:23:49;20.30;;;8.02;;
72439;SDS011;60446;50.752;4.352;2023-02-14T03:26:36;25.35;;;9.30;;
72439;SDS011;60446;50.752;4.352;2023-02-14T03:29:31;21.10;;;9.13;;
72439;SDS011;60446;50.752;4.352;2023-02-14T03:32:39;21.98;;;9.13;;
72439;SDS011;60446;50.752;4.352;2023-02-14T03:38:03;22.35;;;9.88;;
72439;SDS011;60446;50.752;4.352;2023-02-14T03:40:47;25.08;;;8.38;;
72439;SDS011;60446;50.752;4.352;2023-02-14T03:43:25;21.63;;;9.23;;
72439;SDS011;60446;50.752;4.352;2023-02-14T03:46:05;17.48;;;8.30;;
72439;SDS011;60446;50.752;4.352;2023-02-14T03:48:40;19.17;;;8.15;;
72439;SDS011;60446;50.752;4.352;2023-02-14T03:51:10;25.92;;;9.35;;
72439;SDS011;60446;50.752;4.352;2023-02-14T03:53:42;21.52;;;8.15;;
72439;SDS011;60446;50.752;4.352;2023-02-14T03:56:17;23.17;;;8.30;;
72439;SDS011;60446;50.752;4.352;2023-02-14T03:59:10;24.13;;;8.98;;
72439;SDS011;60446;50.752;4.352;2023-02-14T04:01:52;21.65;;;9.20;;
72439;SDS011;60446;50.752;4.352;2023-02-14T04:04:44;21.35;;;8.02;;
72439;SDS011;60446;50.752;4.352;2023-02-14T04:07:14;27.30;;;9.52;;
72439;SDS011;60446;50.752;4.352;2023-02-14T04:09:48;23.13;;;8.18;;
72439;SDS011;60446;50.752;4.352;2023-02-14T04:12:16;20.42;;;8.82;;
72439;SDS011;60446;50.752;4.352;2023-02-14T04:14:57;17.70;;;7.15;;
72439;SDS011;60446;50.752;4.352;2023-02-14T04:17:24;20.33;;;7.72;;
72439;SDS011;60446;50.752;4.352;2023-02-14T04:20:10;22.90;;;7.90;;
72439;SDS011;60446;50.752;4.352;2023-02-14T04:22:37;20.90;;;8.50;;
72439;SDS011;60446;50.752;4.352;2023-02-14T04:25:04;26.35;;;9.20;;
72439;SDS011;60446;50.752;4.352;2023-02-14T04:27:32;22.00;;;8.10;;
72439;SDS011;60446;50.752;4.352;2023-02-14T04:29:59;24.02;;;9.07;;
72439;SDS011;60446;50.752;4.352;2023-02-14T04:32:26;24.38;;;9.25;;
72439;SDS011;60446;50.752;4.352;2023-02-14T04:34:53;21.60;;;7.72;;
72439;SDS011;60446;50.752;4.352;2023-02-14T04:37:20;18.90;;;7.90;;
72439;SDS011;60446;50.752;4.352;2023-02-14T04:39:47;23.73;;;8.52;;
72439;SDS011;60446;50.752;4.352;2023-02-14T04:42:15;19.95;;;7.30;;
72439;SDS011;60446;50.752;4.352;2023-02-14T04:44:42;22.88;;;8.52;;
72439;SDS011;60446;50.752;4.352;2023-02-14T04:47:09;23.25;;;8.63;;
72439;SDS011;60446;50.752;4.352;2023-02-14T04:49:36;22.13;;;8.55;;
72439;SDS011;60446;50.752;4.352;2023-02-14T04:52:03;20.75;;;7.75;;
72439;SDS011;60446;50.752;4.352;2023-02-14T04:54:31;19.85;;;7.88;;
72439;SDS011;60446;50.752;4.352;2023-02-14T04:56:59;22.05;;;8.35;;
72439;SDS011;60446;50.752;4.352;2023-02-14T04:59:26;20.13;;;7.97;;
72439;SDS011;60446;50.752;4.352;2023-02-14T05:01:53;20.30;;;8.13;;
72439;SDS011;60446;50.752;4.352;2023-02-14T05:04:20;22.42;;;9.10;;
72439;SDS011;60446;50.752;4.352;2023-02-14T05:06:47;22.83;;;7.85;;
72439;SDS011;60446;50.752;4.352;2023-02-14T05:09:14;23.52;;;9.05;;
72439;SDS011;60446;50.752;4.352;2023-02-14T05:11:42;21.02;;;8.30;;
72439;SDS011;60446;50.752;4.352;2023-02-14T05:14:09;20.30;;;7.75;;
72439;SDS011;60446;50.752;4.352;2023-02-14T05:16:36;20.45;;;8.45;;
72439;SDS011;60446;50.752;4.352;2023-02-14T05:19:04;21.85;;;7.97;;
72439;SDS011;60446;50.752;4.352;2023-02-14T05:21:31;24.08;;;8.40;;
72439;SDS011;60446;50.752;4.352;2023-02-14T05:23:58;20.52;;;8.65;;
72439;SDS011;60446;50.752;4.352;2023-02-14T05:26:26;20.05;;;8.00;;
72439;SDS011;60446;50.752;4.352;2023-02-14T05:28:53;21.88;;;8.35;;
72439;SDS011;60446;50.752;4.352;2023-02-14T05:31:21;21.90;;;7.57;;
72439;SDS011;60446;50.752;4.352;2023-02-14T05:33:48;20.73;;;8.23;;
72439;SDS011;60446;50.752;4.352;2023-02-14T05:36:15;21.90;;;8.02;;
72439;SDS011;60446;50.752;4.352;2023-02-14T05:38:42;17.98;;;7.05;;
72439;SDS011;60446;50.752;4.352;2023-02-14T05:41:10;26.38;;;8.82;;
72439;SDS011;60446;50.752;4.352;2023-02-14T05:43:37;19.02;;;7.97;;
72439;SDS011;60446;50.752;4.352;2023-02-14T05:46:04;23.83;;;9.45;;
72439;SDS011;60446;50.752;4.352;2023-02-14T05:48:32;20.35;;;8.88;;
72439;SDS011;60446;50.752;4.352;2023-02-14T05:51:06;29.48;;;10.93;;
72439;SDS011;60446;50.752;4.352;2023-02-14T05:53:36;22.85;;;8.60;;
72439;SDS011;60446;50.752;4.352;2023-02-14T05:56:04;24.08;;;9.02;;
72439;SDS011;60446;50.752;4.352;2023-02-14T05:58:32;25.95;;;9.32;;
72439;SDS011;60446;50.752;4.352;2023-02-14T06:00:59;20.83;;;8.45;;
72439;SDS011;60446;50.752;4.352;2023-02-14T06:03:27;23.77;;;8.60;;
72439;SDS011;60446;50.752;4.352;2023-02-14T06:05:54;27.25;;;9.05;;
72439;SDS011;60446;50.752;4.352;2023-02-14T06:08:21;23.48;;;7.75;;
72439;SDS011;60446;50.752;4.352;2023-02-14T06:10:48;17.40;;;8.30;;
72439;SDS011;60446;50.752;4.352;2023-02-14T06:13:15;24.42;;;9.27;;
72439;SDS011;60446;50.752;4.352;2023-02-14T06:15:43;23.23;;;8.60;;
72439;SDS011;60446;50.752;4.352;2023-02-14T06:18:10;19.92;;;8.57;;
72439;SDS011;60446;50.752;4.352;2023-02-14T06:20:37;24.67;;;8.30;;
72439;SDS011;60446;50.752;4.352;2023-02-14T06:23:04;18.08;;;7.50;;
72439;SDS011;60446;50.752;4.352;2023-02-14T06:25:31;22.63;;;9.32;;
72439;SDS011;60446;50.752;4.352;2023-02-14T06:27:59;22.20;;;8.80;;
72439;SDS011;60446;50.752;4.352;2023-02-14T06:30:26;24.63;;;8.98;;
72439;SDS011;60446;50.752;4.352;2023-02-14T06:32:54;26.35;;;9.35;;
72439;SDS011;60446;50.752;4.352;2023-02-14T06:35:21;20.20;;;9.00;;
72439;SDS011;60446;50.752;4.352;2023-02-14T06:37:49;23.35;;;9.02;;
72439;SDS011;60446;50.752;4.352;2023-02-14T06:40:16;27.60;;;8.73;;
72439;SDS011;60446;50.752;4.352;2023-02-14T06:42:45;29.73;;;11.75;;
72439;SDS011;60446;50.752;4.352;2023-02-14T06:45:12;25.48;;;10.45;;
72439;SDS011;60446;50.752;4.352;2023-02-14T06:47:39;23.65;;;8.85;;
72439;SDS011;60446;50.752;4.352;2023-02-14T06:50:06;25.85;;;10.18;;
72439;SDS011;60446;50.752;4.352;2023-02-14T06:52:36;25.40;;;9.80;;
72439;SDS011;60446;50.752;4.352;2023-02-14T06:55:04;30.08;;;11.27;;
72439;SDS011;60446;50.752;4.352;2023-02-14T06:57:32;24.30;;;9.43;;
72439;SDS011;60446;50.752;4.352;2023-02-14T06:59:59;26.23;;;10.52;;
72439;SDS011;60446;50.752;4.352;2023-02-14T07:02:26;35.05;;;11.55;;
72439;SDS011;60446;50.752;4.352;2023-02-14T07:04:53;27.67;;;9.52;;
72439;SDS011;60446;50.752;4.352;2023-02-14T07:07:20;27.85;;;9.50;;
72439;SDS011;60446;50.752;4.352;2023-02-14T07:09:47;26.40;;;9.35;;
72439;SDS011;60446;50.752;4.352;2023-02-14T07:12:14;25.50;;;10.70;;
72439;SDS011;60446;50.752;4.352;2023-02-14T07:14:41;25.73;;;9.43;;
72439;SDS011;60446;50.752;4.352;2023-02-14T07:17:09;30.77;;;9.50;;
72439;SDS011;60446;50.752;4.352;2023-02-14T07:19:36;20.95;;;9.43;;
72439;SDS011;60446;50.752;4.352;2023-02-14T07:22:03;29.10;;;10.48;;
72439;SDS011;60446;50.752;4.352;2023-02-14T07:24:30;24.63;;;9.20;;
72439;SDS011;60446;50.752;4.352;2023-02-14T07:26:57;28.35;;;10.80;;
72439;SDS011;60446;50.752;4.352;2023-02-14T07:29:24;27.83;;;9.90;;
72439;SDS011;60446;50.752;4.352;2023-02-14T07:31:51;26.00;;;10.32;;
72439;SDS011;60446;50.752;4.352;2023-02-14T07:34:19;27.83;;;11.13;;
72439;SDS011;60446;50.752;4.352;2023-02-14T07:36:46;26.27;;;10.70;;
72439;SDS011;60446;50.752;4.352;2023-02-14T07:39:13;25.65;;;10.63;;
72439;SDS011;60446;50.752;4.352;2023-02-14T07:41:40;31.33;;;9.73;;
72439;SDS011;60446;50.752;4.352;2023-02-14T07:44:08;29.55;;;10.60;;
72439;SDS011;60446;50.752;4.352;2023-02-14T07:46:38;30.73;;;11.20;;
72439;SDS011;60446;50.752;4.352;2023-02-14T07:49:06;29.95;;;12.82;;
72439;SDS011;60446;50.752;4.352;2023-02-14T07:51:33;31.38;;;12.75;;
72439;SDS011;60446;50.752;4.352;2023-02-14T07:54:00;32.75;;;11.05;;
72439;SDS011;60446;50.752;4.352;2023-02-14T07:56:27;31.08;;;10.80;;
72439;SDS011;60446;50.752;4.352;2023-02-14T07:58:54;32.15;;;11.38;;
72439;SDS011;60446;50.752;4.352;2023-02-14T08:01:22;30.23;;;11.40;;
72439;SDS011;60446;50.752;4.352;2023-02-14T08:03:49;32.58;;;11.98;;
72439;SDS011;60446;50.752;4.352;2023-02-14T08:06:17;34.95;;;13.63;;
72439;SDS011;60446;50.752;4.352;2023-02-14T08:08:45;32.13;;;13.43;;
72439;SDS011;60446;50.752;4.352;2023-02-14T08:11:13;43.45;;;13.43;;
72439;SDS011;60446;50.752;4.352;2023-02-14T08:13:59;30.80;;;12.65;;
72439;SDS011;60446;50.752;4.352;2023-02-14T08:16:26;36.88;;;13.10;;
72439;SDS011;60446;50.752;4.352;2023-02-14T08:18:53;33.92;;;12.75;;
72439;SDS011;60446;50.752;4.352;2023-02-14T08:21:21;35.92;;;13.98;;
72439;SDS011;60446;50.752;4.352;2023-02-14T08:23:48;44.53;;;15.63;;
72439;SDS011;60446;50.752;4.352;2023-02-14T08:26:15;41.38;;;13.50;;
72439;SDS011;60446;50.752;4.352;2023-02-14T08:28:42;45.28;;;14.43;;
72439;SDS011;60446;50.752;4.352;2023-02-14T08:31:10;44.85;;;15.95;;
72439;SDS011;60446;50.752;4.352;2023-02-14T08:33:37;42.50;;;15.18;;
72439;SDS011;60446;50.752;4.352;2023-02-14T08:36:05;45.25;;;14.60;;
72439;SDS011;60446;50.752;4.352;2023-02-14T08:38:32;39.03;;;15.77;;
72439;SDS011;60446;50.752;4.352;2023-02-14T08:41:00;41.28;;;15.20;;
72439;SDS011;60446;50.752;4.352;2023-02-14T08:43:32;44.50;;;14.77;;
72439;SDS011;60446;50.752;4.352;2023-02-14T08:45:59;39.47;;;14.38;;
72439;SDS011;60446;50.752;4.352;2023-02-14T08:48:27;32.28;;;14.07;;
72439;SDS011;60446;50.752;4.352;2023-02-14T08:50:54;42.55;;;16.20;;
72439;SDS011;60446;50.752;4.352;2023-02-14T08:53:22;43.03;;;14.68;;
72439;SDS011;60446;50.752;4.352;2023-02-14T08:55:49;50.03;;;15.95;;
72439;SDS011;60446;50.752;4.352;2023-02-14T08:58:16;42.40;;;15.00;;
72439;SDS011;60446;50.752;4.352;2023-02-14T09:00:43;41.15;;;13.70;;
72439;SDS011;60446;50.752;4.352;2023-02-14T09:03:11;44.28;;;14.35;;
72439;SDS011;60446;50.752;4.352;2023-02-14T09:05:38;41.72;;;15.88;;
72439;SDS011;60446;50.752;4.352;2023-02-14T09:08:05;50.15;;;16.27;;
72439;SDS011;60446;50.752;4.352;2023-02-14T09:10:33;49.65;;;15.88;;
72439;SDS011;60446;50.752;4.352;2023-02-14T09:13:00;47.92;;;16.65;;
72439;SDS011;60446;50.752;4.352;2023-02-14T09:15:27;50.75;;;17.27;;
72439;SDS011;60446;50.752;4.352;2023-02-14T09:17:54;66.85;;;18.08;;
72439;SDS011;60446;50.752;4.352;2023-02-14T09:20:22;57.55;;;18.17;;
72439;SDS011;60446;50.752;4.352;2023-02-14T09:22:49;49.63;;;16.95;;
72439;SDS011;60446;50.752;4.352;2023-02-14T09:25:16;53.83;;;16.85;;
72439;SDS011;60446;50.752;4.352;2023-02-14T09:27:44;43.50;;;14.82;;
72439;SDS011;60446;50.752;4.352;2023-02-14T09:30:11;48.15;;;16.17;;
72439;SDS011;60446;50.752;4.352;2023-02-14T09:32:39;46.25;;;16.38;;
72439;SDS011;60446;50.752;4.352;2023-02-14T09:35:06;42.45;;;14.73;;
72439;SDS011;60446;50.752;4.352;2023-02-14T09:37:33;38.88;;;14.15;;
72439;SDS011;60446;50.752;4.352;2023-02-14T09:40:00;47.10;;;16.65;;
72439;SDS011;60446;50.752;4.352;2023-02-14T09:45:07;40.70;;;14.27;;
72439;SDS011;60446;50.752;4.352;2023-02-14T09:52:57;35.90;;;13.25;;
72439;SDS011;60446;50.752;4.352;2023-02-14T09:55:39;36.15;;;11.85;;
72439;SDS011;60446;50.752;4.352;2023-02-14T09:58:15;37.15;;;13.52;;
72439;SDS011;60446;50.752;4.352;2023-02-14T10:00:53;37.45;;;12.88;;
72439;SDS011;60446;50.752;4.352;2023-02-14T10:09:21;35.72;;;12.05;;
72439;SDS011;60446;50.752;4.352;2023-02-14T10:12:08;31.25;;;12.05;;
72439;SDS011;60446;50.752;4.352;2023-02-14T10:14:45;35.30;;;12.13;;
72439;SDS011;60446;50.752;4.352;2023-02-14T10:17:15;35.10;;;12.40;;
72439;SDS011;60446;50.752;4.352;2023-02-14T10:26:01;29.92;;;12.35;;
72439;SDS011;60446;50.752;4.352;2023-02-14T10:33:55;37.08;;;11.95;;
72439;SDS011;60446;50.752;4.352;2023-02-14T10:39:41;33.45;;;11.90;;
72439;SDS011;60446;50.752;4.352;2023-02-14T10:43:00;33.10;;;12.23;;
72439;SDS011;60446;50.752;4.352;2023-02-14T10:45:57;29.87;;;12.03;;
72439;SDS011;60446;50.752;4.352;2023-02-14T10:48:50;34.60;;;12.73;;
72439;SDS011;60446;50.752;4.352;2023-02-14T10:51:42;32.90;;;11.30;;
72439;SDS011;60446;50.752;4.352;2023-02-14T10:54:22;34.28;;;11.90;;
72439;SDS011;60446;50.752;4.352;2023-02-14T10:57:02;33.10;;;11.85;;
72439;SDS011;60446;50.752;4.352;2023-02-14T10:59:51;35.00;;;13.23;;
72439;SDS011;60446;50.752;4.352;2023-02-14T11:02:37;32.42;;;12.85;;
72439;SDS011;60446;50.752;4.352;2023-02-14T11:05:17;32.42;;;12.98;;
72439;SDS011;60446;50.752;4.352;2023-02-14T11:08:01;31.73;;;12.30;;
72439;SDS011;60446;50.752;4.352;2023-02-14T11:10:40;36.78;;;12.30;;
72439;SDS011;60446;50.752;4.352;2023-02-14T11:16:05;36.38;;;13.38;;
72439;SDS011;60446;50.752;4.352;2023-02-14T11:18:39;33.97;;;12.40;;
72439;SDS011;60446;50.752;4.352;2023-02-14T11:23:41;34.40;;;13.07;;
72439;SDS011;60446;50.752;4.352;2023-02-14T11:26:24;38.90;;;14.93;;
72439;SDS011;60446;50.752;4.352;2023-02-14T11:28:58;31.40;;;11.75;;
72439;SDS011;60446;50.752;4.352;2023-02-14T11:31:33;34.75;;;12.32;;
72439;SDS011;60446;50.752;4.352;2023-02-14T11:34:29;38.78;;;12.38;;
72439;SDS011;60446;50.752;4.352;2023-02-14T11:36:59;30.77;;;12.52;;
72439;SDS011;60446;50.752;4.352;2023-02-14T11:39:30;33.17;;;12.03;;
72439;SDS011;60446;50.752;4.352;2023-02-14T11:42:01;37.35;;;13.15;;
72439;SDS011;60446;50.752;4.352;2023-02-14T11:44:31;32.05;;;12.63;;
72439;SDS011;60446;50.752;4.352;2023-02-14T11:47:19;36.30;;;14.35;;
72439;SDS011;60446;50.752;4.352;2023-02-14T11:50:04;34.63;;;12.82;;
72439;SDS011;60446;50.752;4.352;2023-02-14T11:52:51;31.87;;;13.10;;
72439;SDS011;60446;50.752;4.352;2023-02-14T11:55:24;34.70;;;13.13;;
72439;SDS011;60446;50.752;4.352;2023-02-14T11:57:54;33.10;;;12.75;;
72439;SDS011;60446;50.752;4.352;2023-02-14T12:00:23;39.45;;;13.15;;
72439;SDS011;60446;50.752;4.352;2023-02-14T12:02:52;32.13;;;12.93;;
72439;SDS011;60446;50.752;4.352;2023-02-14T12:08:08;31.85;;;12.60;;
72439;SDS011;60446;50.752;4.352;2023-02-14T12:10:37;37.78;;;13.48;;
72439;SDS011;60446;50.752;4.352;2023-02-14T12:23:51;32.40;;;12.73;;
72439;SDS011;60446;50.752;4.352;2023-02-14T12:29:03;32.97;;;12.85;;
72439;SDS011;60446;50.752;4.352;2023-02-14T12:31:35;39.53;;;12.70;;
72439;SDS011;60446;50.752;4.352;2023-02-14T12:34:02;34.83;;;13.02;;
72439;SDS011;60446;50.752;4.352;2023-02-14T12:48:28;33.50;;;11.80;;
72439;SDS011;60446;50.752;4.352;2023-02-14T12:56:57;33.97;;;12.75;;
72439;SDS011;60446;50.752;4.352;2023-02-14T13:02:51;35.17;;;12.63;;
72439;SDS011;60446;50.752;4.352;2023-02-14T13:08:18;30.38;;;11.75;;
72439;SDS011;60446;50.752;4.352;2023-02-14T13:17:17;35.90;;;13.05;;
72439;SDS011;60446;50.752;4.352;2023-02-14T13:28:31;34.17;;;11.87;;
72439;SDS011;60446;50.752;4.352;2023-02-14T13:30:59;34.17;;;12.05;;
72439;SDS011;60446;50.752;4.352;2023-02-14T13:33:30;31.13;;;11.70;;
72439;SDS011;60446;50.752;4.352;2023-02-14T13:36:07;32.45;;;11.98;;
72439;SDS011;60446;50.752;4.352;2023-02-14T13:38:45;31.85;;;12.57;;
72439;SDS011;60446;50.752;4.352;2023-02-14T13:41:16;31.23;;;12.13;;
72439;SDS011;60446;50.752;4.352;2023-02-14T13:43:46;33.80;;;12.65;;
72439;SDS011;60446;50.752;4.352;2023-02-14T13:52:00;28.90;;;11.60;;
72439;SDS011;60446;50.752;4.352;2023-02-14T14:10:49;31.17;;;11.40;;
72439;SDS011;60446;50.752;4.352;2023-02-14T14:16:30;27.65;;;11.10;;
72439;SDS011;60446;50.752;4.352;2023-02-14T14:19:32;31.40;;;11.43;;
72439;SDS011;60446;50.752;4.352;2023-02-14T14:22:02;27.10;;;11.20;;
72439;SDS011;60446;50.752;4.352;2023-02-14T14:24:33;36.78;;;11.68;;
72439;SDS011;60446;50.752;4.352;2023-02-14T14:27:17;28.73;;;11.07;;
72439;SDS011;60446;50.752;4.352;2023-02-14T14:29:56;30.95;;;11.60;;
72439;SDS011;60446;50.752;4.352;2023-02-14T14:32:34;28.55;;;10.40;;
72439;SDS011;60446;50.752;4.352;2023-02-14T14:35:24;30.83;;;10.60;;
72439;SDS011;60446;50.752;4.352;2023-02-14T14:37:52;35.67;;;10.88;;
72439;SDS011;60446;50.752;4.352;2023-02-14T14:40:23;35.72;;;11.05;;
72439;SDS011;60446;50.752;4.352;2023-02-14T14:45:47;37.47;;;12.75;;
72439;SDS011;60446;50.752;4.352;2023-02-14T14:48:25;41.93;;;14.03;;
72439;SDS011;60446;50.752;4.352;2023-02-14T14:51:07;30.95;;;11.70;;
72439;SDS011;60446;50.752;4.352;2023-02-14T14:53:49;30.50;;;10.85;;
72439;SDS011;60446;50.752;4.352;2023-02-14T14:56:23;31.13;;;11.85;;
72439;SDS011;60446;50.752;4.352;2023-02-14T14:58:56;31.98;;;12.15;;
72439;SDS011;60446;50.752;4.352;2023-02-14T15:01:45;27.87;;;10.07;;
72439;SDS011;60446;50.752;4.352;2023-02-14T15:06:45;32.40;;;12.70;;
72439;SDS011;60446;50.752;4.352;2023-02-14T15:09:21;30.15;;;11.38;;
72439;SDS011;60446;50.752;4.352;2023-02-14T15:12:00;27.85;;;11.25;;
72439;SDS011;60446;50.752;4.352;2023-02-14T15:14:48;30.43;;;11.97;;
72439;SDS011;60446;50.752;4.352;2023-02-14T15:17:30;31.15;;;11.75;;
72439;SDS011;60446;50.752;4.352;2023-02-14T15:20:02;24.63;;;9.32;;
72439;SDS011;60446;50.752;4.352;2023-02-14T15:22:45;30.85;;;10.55;;
72439;SDS011;60446;50.752;4.352;2023-02-14T15:25:16;27.48;;;9.68;;
72439;SDS011;60446;50.752;4.352;2023-02-14T15:27:48;25.37;;;10.13;;
72439;SDS011;60446;50.752;4.352;2023-02-14T15:30:21;29.23;;;9.82;;
72439;SDS011;60446;50.752;4.352;2023-02-14T15:32:59;26.20;;;8.77;;
72439;SDS011;60446;50.752;4.352;2023-02-14T15:35:30;28.55;;;10.65;;
72439;SDS011;60446;50.752;4.352;2023-02-14T15:38:00;27.30;;;9.70;;
72439;SDS011;60446;50.752;4.352;2023-02-14T15:40:31;28.93;;;10.90;;
72439;SDS011;60446;50.752;4.352;2023-02-14T15:46:14;28.23;;;9.80;;
72439;SDS011;60446;50.752;4.352;2023-02-14T15:49:17;30.38;;;11.38;;
72439;SDS011;60446;50.752;4.352;2023-02-14T15:51:48;37.10;;;12.32;;
72439;SDS011;60446;50.752;4.352;2023-02-14T15:54:30;33.03;;;13.13;;
72439;SDS011;60446;50.752;4.352;2023-02-14T15:57:03;28.65;;;12.00;;
72439;SDS011;60446;50.752;4.352;2023-02-14T15:59:33;26.85;;;11.68;;
72439;SDS011;60446;50.752;4.352;2023-02-14T16:02:03;35.85;;;13.00;;
72439;SDS011;60446;50.752;4.352;2023-02-14T16:07:57;34.13;;;12.60;;
72439;SDS011;60446;50.752;4.352;2023-02-14T16:10:32;34.60;;;12.65;;
72439;SDS011;60446;50.752;4.352;2023-02-14T16:15:38;39.30;;;13.13;;
72439;SDS011;60446;50.752;4.352;2023-02-14T16:18:39;31.08;;;12.80;;
72439;SDS011;60446;50.752;4.352;2023-02-14T16:21:25;31.87;;;13.40;;
72439;SDS011;60446;50.752;4.352;2023-02-14T16:26:42;35.08;;;13.07;;
72439;SDS011;60446;50.752;4.352;2023-02-14T16:29:11;32.00;;;13.00;;
72439;SDS011;60446;50.752;4.352;2023-02-14T16:31:49;38.17;;;13.52;;
72439;SDS011;60446;50.752;4.352;2023-02-14T16:34:41;31.57;;;12.53;;
72439;SDS011;60446;50.752;4.352;2023-02-14T16:37:16;38.85;;;13.10;;
72439;SDS011;60446;50.752;4.352;2023-02-14T16:39:54;35.30;;;13.48;;
72439;SDS011;60446;50.752;4.352;2023-02-14T16:42:23;30.65;;;12.10;;
72439;SDS011;60446;50.752;4.352;2023-02-14T16:44:50;35.75;;;12.73;;
72439;SDS011;60446;50.752;4.352;2023-02-14T16:47:18;42.17;;;14.67;;
72439;SDS011;60446;50.752;4.352;2023-02-14T16:49:46;39.30;;;12.57;;
72439;SDS011;60446;50.752;4.352;2023-02-14T16:52:16;43.58;;;13.10;;
72439;SDS011;60446;50.752;4.352;2023-02-14T16:54:49;37.15;;;12.40;;
72439;SDS011;60446;50.752;4.352;2023-02-14T16:57:36;34.72;;;12.00;;
72439;SDS011;60446;50.752;4.352;2023-02-14T17:00:09;29.53;;;11.33;;
72439;SDS011;60446;50.752;4.352;2023-02-14T17:02:37;32.80;;;12.95;;
72439;SDS011;60446;50.752;4.352;2023-02-14T17:05:04;37.05;;;13.73;;
72439;SDS011;60446;50.752;4.352;2023-02-14T17:07:32;33.05;;;12.25;;
72439;SDS011;60446;50.752;4.352;2023-02-14T17:10:00;34.95;;;12.95;;
72439;SDS011;60446;50.752;4.352;2023-02-14T17:12:34;39.23;;;13.13;;
72439;SDS011;60446;50.752;4.352;2023-02-14T17:15:07;39.70;;;14.25;;
72439;SDS011;60446;50.752;4.352;2023-02-14T17:17:39;40.15;;;14.20;;
72439;SDS011;60446;50.752;4.352;2023-02-14T17:20:09;40.17;;;16.23;;
72439;SDS011;60446;50.752;4.352;2023-02-14T17:22:38;38.25;;;14.90;;
72439;SDS011;60446;50.752;4.352;2023-02-14T17:25:08;37.83;;;14.37;;
72439;SDS011;60446;50.752;4.352;2023-02-14T17:27:35;41.97;;;15.68;;
72439;SDS011;60446;50.752;4.352;2023-02-14T17:30:03;44.22;;;15.52;;
72439;SDS011;60446;50.752;4.352;2023-02-14T17:32:31;33.97;;;14.00;;
72439;SDS011;60446;50.752;4.352;2023-02-14T17:35:00;40.50;;;14.40;;
72439;SDS011;60446;50.752;4.352;2023-02-14T17:37:29;40.40;;;15.13;;
72439;SDS011;60446;50.752;4.352;2023-02-14T17:39:57;40.70;;;15.68;;
72439;SDS011;60446;50.752;4.352;2023-02-14T17:42:25;41.10;;;16.65;;